Time;durP1;ratioP1;P1;durP2;ratioP2;P2;SDS_P1;SDS_P2;PMS_P1;PMS_P2;Temp;Humidity;BMP_temperature;BMP_pressure;BME280_temperature;BME280_humidity;BME280_pressure;Samples;Min_cycle;Max_cycle;Signal;HPM_P1;HPM_P2
2022/05/01 00:00:47;;;;;;;19.35;8.63;;;18.30;76.40;;;;;;5008505;28;20097;-80
2022/05/01 00:03:33;;;;;;;32.92;9.40;;;18.30;76.40;;;;;;5009175;28;20108;-81
2022/05/01 00:06:06;;;;;;;17.48;8.45;;;18.30;76.40;;;;;;5008385;28;20979;-80
2022/05/01 00:08:35;;;;;;;18.70;9.35;;;18.30;76.50;;;;;;5004838;28;20609;-80
2022/05/01 00:11:02;;;;;;;18.20;7.97;;;18.30;76.60;;;;;;5008511;28;20026;-80
2022/05/01 00:13:29;;;;;;;23.48;9.70;;;18.30;76.50;;;;;;5007223;28;20500;-74
2022/05/01 00:15:56;;;;;;;25.35;8.77;;;18.30;76.60;;;;;;5008482;28;20066;-79
2022/05/01 00:18:23;;;;;;;14.88;8.15;;;18.30;76.70;;;;;;5007665;28;20440;-81
2022/05/01 00:20:50;;;;;;;22.52;8.10;;;18.20;76.70;;;;;;5008694;28;20149;-82
2022/05/01 00:23:16;;;;;;;25.90;9.93;;;18.30;76.90;;;;;;5009039;28;20092;-82
2022/05/01 00:25:43;;;;;;;23.17;10.75;;;18.20;76.90;;;;;;5008287;28;20024;-83
2022/05/01 00:28:14;;;;;;;30.67;10.98;;;18.20;76.90;;;;;;5009975;28;20018;-74
2022/05/01 00:30:41;;;;;;;32.10;11.93;;;18.20;76.90;;;;;;5008236;28;20018;-85
2022/05/01 00:38:39;;;;;;;33.30;13.57;;;18.20;77.00;;;;;;5007768;28;20103;-84
2022/05/01 00:41:11;;;;;;;40.22;13.50;;;18.20;76.90;;;;;;5009656;28;20045;-84
2022/05/01 00:43:56;;;;;;;29.02;13.52;;;18.20;76.90;;;;;;5007285;28;20085;-83
2022/05/01 00:46:24;;;;;;;33.90;12.20;;;18.20;76.90;;;;;;5010988;28;20030;-86
2022/05/01 00:48:51;;;;;;;29.55;12.13;;;18.20;77.00;;;;;;5009221;28;20030;-86
2022/05/01 00:51:20;;;;;;;22.40;12.60;;;18.10;76.90;;;;;;5011071;28;21661;-87
2022/05/01 00:53:51;;;;;;;24.75;11.52;;;18.10;76.80;;;;;;5011707;28;20030;-87
2022/05/01 00:56:18;;;;;;;28.98;13.35;;;18.10;76.80;;;;;;5008286;28;20486;-86
2022/05/01 00:58:47;;;;;;;28.67;11.88;;;18.10;76.80;;;;;;5010074;28;20474;-82
2022/05/01 01:01:14;;;;;;;30.25;9.93;;;18.10;76.90;;;;;;5006807;28;20018;-81
2022/05/01 01:03:41;;;;;;;23.40;8.93;;;18.10;76.90;;;;;;5007320;28;20045;-81
2022/05/01 01:06:07;;;;;;;30.27;8.90;;;18.10;76.90;;;;;;5007455;28;20032;-81
2022/05/01 01:08:34;;;;;;;21.63;7.82;;;18.00;76.90;;;;;;5006792;28;20029;-78
2022/05/01 01:11:00;;;;;;;24.92;10.32;;;18.10;77.00;;;;;;5006799;28;20029;-74
2022/05/01 01:13:28;;;;;;;25.33;8.70;;;18.00;77.00;;;;;;5006672;28;20022;-80
2022/05/01 01:15:56;;;;;;;26.67;8.50;;;18.10;77.00;;;;;;5006780;28;20030;-78
2022/05/01 01:18:23;;;;;;;36.85;8.57;;;18.00;77.10;;;;;;5005414;28;20038;-74
2022/05/01 01:20:52;;;;;;;22.58;7.55;;;18.00;77.30;;;;;;5007261;28;20054;-77
2022/05/01 01:23:20;;;;;;;31.77;7.97;;;18.00;78.20;;;;;;5007474;28;20048;-77
2022/05/01 01:25:48;;;;;;;26.30;7.07;;;18.00;78.70;;;;;;5006136;28;20799;-78
2022/05/01 01:28:15;;;;;;;22.23;8.13;;;18.10;78.80;;;;;;5008167;28;20097;-78
2022/05/01 01:33:30;;;;;;;18.40;8.73;;;18.00;78.80;;;;;;5007783;28;20386;-82
2022/05/01 01:36:00;;;;;;;18.98;6.57;;;18.10;79.10;;;;;;4988091;28;20388;-79
2022/05/01 01:38:26;;;;;;;20.45;9.07;;;18.00;78.90;;;;;;5006236;28;20037;-82
2022/05/01 01:40:55;;;;;;;16.08;6.28;;;18.10;78.70;;;;;;5008904;28;20029;-84
2022/05/01 01:43:29;;;;;;;18.98;6.28;;;18.00;78.50;;;;;;5006388;28;20105;-81
2022/05/01 01:45:56;;;;;;;15.40;6.05;;;18.00;78.50;;;;;;5007312;28;20100;-81
2022/05/01 01:48:23;;;;;;;17.35;6.05;;;18.00;78.40;;;;;;5009897;28;20033;-78
2022/05/01 01:50:58;;;;;;;18.13;7.55;;;18.00;78.90;;;;;;5011364;28;20026;-78
2022/05/01 01:53:25;;;;;;;21.87;6.33;;;18.00;78.30;;;;;;5010811;28;20362;-80
2022/05/01 01:55:52;;;;;;;17.45;6.28;;;18.00;78.20;;;;;;5010565;28;20279;-79
2022/05/01 01:58:19;;;;;;;15.50;5.57;;;18.00;78.10;;;;;;5010708;28;20042;-79
2022/05/01 02:00:46;;;;;;;18.52;6.28;;;18.00;78.10;;;;;;5009959;28;20033;-79
2022/05/01 02:03:13;;;;;;;20.83;7.55;;;18.00;77.90;;;;;;5010927;28;20022;-78
2022/05/01 02:05:39;;;;;;;19.17;6.95;;;18.00;77.90;;;;;;5009666;28;20018;-79
2022/05/01 02:08:06;;;;;;;24.38;9.15;;;18.00;78.00;;;;;;5012579;28;20064;-82
2022/05/01 02:10:33;;;;;;;16.88;6.82;;;17.90;77.90;;;;;;5010735;28;20033;-83
2022/05/01 02:13:02;;;;;;;18.88;6.93;;;17.90;77.90;;;;;;5012234;28;20494;-78
2022/05/01 02:15:33;;;;;;;17.17;6.28;;;17.90;77.80;;;;;;5010013;28;20037;-81
2022/05/01 02:18:01;;;;;;;19.15;6.57;;;17.90;77.90;;;;;;4989028;28;20371;-78
2022/05/01 02:23:21;;;;;;;23.75;8.00;;;17.90;77.80;;;;;;4989666;28;20045;-76
2022/05/01 02:25:48;;;;;;;17.55;7.90;;;17.90;77.80;;;;;;5010250;28;20537;-81
2022/05/01 02:28:16;;;;;;;21.15;6.95;;;17.90;78.00;;;;;;5008668;28;20020;-81
2022/05/01 02:30:43;;;;;;;24.27;7.22;;;17.90;78.10;;;;;;5009929;28;20022;-81
2022/05/01 02:33:11;;;;;;;9.95;5.45;;;17.90;78.20;;;;;;5009829;28;20050;-81
2022/05/01 02:35:46;;;;;;;23.65;6.68;;;17.90;78.20;;;;;;5009722;28;20080;-81
2022/05/01 02:38:15;;;;;;;15.88;5.55;;;17.90;78.10;;;;;;5010374;28;20053;-80
2022/05/01 02:40:54;;;;;;;11.45;3.75;;;17.90;78.20;;;;;;4990471;28;20366;-83
2022/05/01 02:43:31;;;;;;;18.25;4.72;;;17.90;78.30;;;;;;5024371;28;20543;-80
2022/05/01 02:46:01;;;;;;;12.50;4.05;;;17.90;78.30;;;;;;5007976;28;20026;-85
2022/05/01 02:48:36;;;;;;;17.23;5.85;;;17.90;78.20;;;;;;5011383;28;20105;-80
2022/05/01 02:51:06;;;;;;;16.23;4.57;;;17.80;78.10;;;;;;5010389;28;20033;-79
2022/05/01 02:53:33;;;;;;;13.15;4.88;;;17.80;78.00;;;;;;5009969;28;20026;-80
2022/05/01 02:56:00;;;;;;;13.55;4.18;;;17.80;77.90;;;;;;5009610;28;20014;-81
2022/05/01 02:58:30;;;;;;;12.45;4.63;;;17.80;77.90;;;;;;5006417;28;20030;-77
2022/05/01 03:00:57;;;;;;;11.65;4.97;;;17.80;78.00;;;;;;5024505;28;20036;-82
2022/05/01 03:03:24;;;;;;;12.70;5.13;;;17.90;78.20;;;;;;5011579;28;20026;-84
2022/05/01 03:05:52;;;;;;;14.60;5.35;;;17.90;78.10;;;;;;5012647;28;20014;-83
2022/05/01 03:08:19;;;;;;;9.75;5.00;;;17.80;78.10;;;;;;5011854;28;20034;-85
2022/05/01 03:10:46;;;;;;;13.68;5.95;;;17.80;78.10;;;;;;5012376;28;20049;-85
2022/05/01 03:13:13;;;;;;;17.30;7.15;;;17.80;78.10;;;;;;5012923;28;20096;-85
2022/05/01 03:15:41;;;;;;;15.65;7.40;;;17.80;78.10;;;;;;5011725;28;20057;-79
2022/05/01 03:23:37;;;;;;;17.33;9.23;;;17.80;78.10;;;;;;5010528;28;20053;-78
2022/05/01 03:26:04;;;;;;;15.30;8.73;;;17.70;78.00;;;;;;5009939;28;20065;-83
2022/05/01 03:28:31;;;;;;;16.92;9.02;;;17.80;78.00;;;;;;5009135;28;20116;-80
2022/05/01 03:30:57;;;;;;;16.77;8.10;;;17.80;78.00;;;;;;5010144;28;20022;-84
2022/05/01 03:33:25;;;;;;;17.15;8.65;;;17.80;78.10;;;;;;5010916;28;20096;-86
2022/05/01 03:35:52;;;;;;;16.33;8.25;;;17.70;78.00;;;;;;5011960;28;20400;-86
2022/05/01 03:38:18;;;;;;;24.08;7.95;;;17.70;78.00;;;;;;5011252;28;20404;-86
2022/05/01 03:40:48;;;;;;;17.85;6.30;;;17.70;77.90;;;;;;5010206;28;21820;-82
2022/05/01 03:43:16;;;;;;;21.15;6.78;;;17.70;77.90;;;;;;5009966;28;20014;-84
2022/05/01 03:45:43;;;;;;;12.80;5.90;;;17.70;78.00;;;;;;5011174;28;20077;-84
2022/05/01 03:48:11;;;;;;;14.95;5.47;;;17.70;77.90;;;;;;5011723;28;20018;-83
2022/05/01 03:50:38;;;;;;;12.93;5.68;;;17.70;78.00;;;;;;5008278;28;20017;-79
2022/05/01 03:53:06;;;;;;;14.00;4.45;;;17.70;77.90;;;;;;5008746;28;20025;-81
2022/05/01 03:55:34;;;;;;;31.40;5.72;;;17.70;78.60;;;;;;5007743;28;20026;-79
2022/05/01 03:58:01;;;;;;;18.25;5.72;;;17.70;78.10;;;;;;5008761;28;20030;-72
2022/05/01 04:00:27;;;;;;;22.83;5.60;;;17.70;78.50;;;;;;4989982;28;20402;-81
2022/05/01 04:02:54;;;;;;;10.38;4.22;;;17.70;78.40;;;;;;5008588;28;20022;-80
2022/05/01 04:05:21;;;;;;;12.98;4.75;;;17.70;78.10;;;;;;5008689;28;20030;-77
2022/05/01 04:07:47;;;;;;;11.95;4.35;;;17.70;77.80;;;;;;5008056;28;20093;-82
2022/05/01 04:10:14;;;;;;;18.88;4.03;;;17.70;77.70;;;;;;5008636;28;20496;-81
2022/05/01 04:12:43;;;;;;;11.57;3.05;;;17.60;77.50;;;;;;5007304;28;20528;-81
2022/05/01 04:15:12;;;;;;;13.85;4.10;;;17.60;78.10;;;;;;5008454;28;20029;-80
2022/05/01 04:17:40;;;;;;;12.88;3.78;;;17.70;77.50;;;;;;5008709;28;20041;-80
2022/05/01 04:20:13;;;;;;;15.05;4.50;;;17.60;77.40;;;;;;5009021;28;20014;-82
2022/05/01 04:22:41;;;;;;;14.63;4.43;;;17.60;77.40;;;;;;5008965;28;20058;-83
2022/05/01 04:25:15;;;;;;;10.40;5.05;;;17.60;77.50;;;;;;5008197;28;20010;-81
2022/05/01 04:27:43;;;;;;;10.60;3.53;;;17.60;77.60;;;;;;5009099;28;20512;-83
2022/05/01 04:30:14;;;;;;;11.07;4.03;;;17.60;77.60;;;;;;5007565;28;20018;-83
2022/05/01 04:32:51;;;;;;;12.68;3.88;;;17.60;77.60;;;;;;5006775;28;20065;-77
2022/05/01 04:35:38;;;;;;;12.02;3.97;;;17.60;77.70;;;;;;5007317;28;20477;-83
2022/05/01 04:38:17;;;;;;;11.80;3.65;;;17.60;77.70;;;;;;5007588;28;20033;-85
2022/05/01 04:40:52;;;;;;;13.20;7.80;;;17.60;77.80;;;;;;5009787;28;20045;-82
2022/05/01 04:43:21;;;;;;;23.88;13.85;;;17.50;78.50;;;;;;5008348;28;20029;-84
2022/05/01 04:45:52;;;;;;;30.27;10.90;;;17.50;77.90;;;;;;5010515;28;20023;-85
2022/05/01 04:48:20;;;;;;;28.58;8.80;;;17.50;78.50;;;;;;5007446;28;20037;-82
2022/05/01 04:50:47;;;;;;;18.83;7.20;;;17.50;79.30;;;;;;5006255;28;20379;-80
2022/05/01 04:53:15;;;;;;;14.73;6.43;;;17.60;79.30;;;;;;5008275;28;20022;-77
2022/05/01 04:55:44;;;;;;;18.92;6.07;;;17.60;78.90;;;;;;5007188;28;20026;-81
2022/05/01 04:58:12;;;;;;;11.38;5.55;;;17.60;78.50;;;;;;5008182;28;20104;-83
2022/05/01 05:00:39;;;;;;;11.60;4.97;;;17.50;78.20;;;;;;5007351;28;20018;-82
2022/05/01 05:03:06;;;;;;;16.33;4.88;;;17.50;78.10;;;;;;5010386;28;20076;-78
2022/05/01 05:05:34;;;;;;;10.20;4.60;;;17.50;78.00;;;;;;4990361;28;20381;-80
2022/05/01 05:10:47;;;;;;;12.57;3.55;;;17.50;77.90;;;;;;5008863;28;20531;-85
2022/05/01 05:13:15;;;;;;;10.63;3.80;;;17.50;77.80;;;;;;5004298;28;20021;-80
2022/05/01 05:15:42;;;;;;;9.48;3.47;;;17.50;77.80;;;;;;5007055;28;20025;-79
2022/05/01 05:18:08;;;;;;;14.85;4.18;;;17.50;78.40;;;;;;5006216;28;20509;-77
2022/05/01 05:20:35;;;;;;;10.13;3.97;;;17.50;77.80;;;;;;5006941;28;20014;-81
2022/05/01 05:23:01;;;;;;;15.00;3.90;;;17.50;77.80;;;;;;5006897;28;20025;-82
2022/05/01 05:25:28;;;;;;;11.25;4.05;;;17.50;77.80;;;;;;5006855;28;20116;-75
2022/05/01 05:27:55;;;;;;;16.50;4.50;;;17.50;77.70;;;;;;5005666;28;20037;-80
2022/05/01 05:30:21;;;;;;;10.27;3.78;;;17.50;77.70;;;;;;5006149;28;20026;-79
2022/05/01 05:32:49;;;;;;;9.07;4.22;;;17.50;77.80;;;;;;5008267;28;20456;-81
2022/05/01 05:35:15;;;;;;;17.30;4.65;;;17.40;77.80;;;;;;5005455;28;20044;-80
2022/05/01 05:37:42;;;;;;;12.43;3.72;;;17.40;77.70;;;;;;5008346;28;20037;-80
2022/05/01 05:40:09;;;;;;;6.38;3.55;;;17.40;77.70;;;;;;5006729;28;20014;-79
2022/05/01 05:42:36;;;;;;;11.48;4.38;;;17.50;77.60;;;;;;5003941;28;20033;-81
2022/05/01 05:45:03;;;;;;;11.95;3.35;;;17.40;77.60;;;;;;5007441;28;20113;-80
2022/05/01 05:47:30;;;;;;;15.10;3.17;;;17.40;77.60;;;;;;5006175;28;20385;-78
2022/05/01 05:49:56;;;;;;;9.23;3.00;;;17.50;77.50;;;;;;5007977;28;20061;-81
2022/05/01 05:52:23;;;;;;;8.27;3.47;;;17.40;76.90;;;;;;5006515;28;20055;-80
2022/05/01 05:54:49;;;;;;;21.02;4.03;;;17.40;77.00;;;;;;5007302;28;20022;-76
2022/05/01 05:57:27;;;;;;;10.98;3.95;;;17.30;77.30;;;;;;5004914;28;20496;-83
2022/05/01 05:59:57;;;;;;;16.05;8.73;;;17.20;78.50;;;;;;4988671;28;20018;-76
2022/05/01 06:02:29;;;;;;;20.00;11.63;;;17.20;79.20;;;;;;5008461;28;20061;-84
2022/05/01 06:04:59;;;;;;;20.90;8.02;;;17.20;79.40;;;;;;5008142;28;20113;-84
2022/05/01 06:07:26;;;;;;;14.15;4.88;;;17.30;79.50;;;;;;4987221;28;20038;-83
2022/05/01 06:09:52;;;;;;;12.68;4.53;;;17.30;79.10;;;;;;5006192;28;20059;-84
2022/05/01 06:12:28;;;;;;;17.88;4.07;;;17.30;79.00;;;;;;5006962;28;20640;-84
2022/05/01 06:14:54;;;;;;;30.90;5.53;;;17.30;79.00;;;;;;4988551;28;20026;-80
2022/05/01 06:17:21;;;;;;;17.75;3.25;;;17.30;79.00;;;;;;5008228;28;20045;-85
2022/05/01 06:19:50;;;;;;;40.10;6.22;;;17.40;78.80;;;;;;5007940;28;20029;-82
2022/05/01 06:22:17;;;;;;;18.08;6.68;;;17.40;78.80;;;;;;5008459;28;20701;-81
2022/05/01 06:24:43;;;;;;;23.88;10.52;;;17.40;79.10;;;;;;5007720;28;20021;-79
2022/05/01 06:27:10;;;;;;;28.58;10.93;;;17.40;79.40;;;;;;5005157;28;20381;-73
2022/05/01 06:29:36;;;;;;;42.40;8.68;;;17.40;79.80;;;;;;5006531;28;20480;-77
2022/05/01 06:32:03;;;;;;;30.80;6.07;;;17.50;79.90;;;;;;5005411;28;20591;-75
2022/05/01 06:34:30;;;;;;;16.70;5.82;;;17.50;80.00;;;;;;5010824;28;20088;-80
2022/05/01 06:36:56;;;;;;;16.92;3.92;;;17.50;80.00;;;;;;5010398;28;20117;-80
2022/05/01 06:39:23;;;;;;;12.63;3.33;;;17.50;80.00;;;;;;5010475;28;20773;-71
2022/05/01 06:41:49;;;;;;;9.57;4.03;;;17.60;80.20;;;;;;5010529;28;20081;-76
2022/05/01 06:44:16;;;;;;;23.27;3.90;;;17.60;80.30;;;;;;5010256;28;20535;-81
2022/05/01 06:46:42;;;;;;;13.23;4.10;;;17.60;80.40;;;;;;5010461;28;20029;-86
2022/05/01 06:49:09;;;;;;;15.77;3.50;;;17.60;80.60;;;;;;5009063;28;20061;-84
2022/05/01 06:51:35;;;;;;;17.52;8.60;;;17.70;80.70;;;;;;5011591;28;20377;-75
2022/05/01 06:54:03;;;;;;;22.90;13.90;;;17.70;80.70;;;;;;5009899;28;20014;-78
2022/05/01 06:56:29;;;;;;;19.17;7.97;;;17.80;80.80;;;;;;5009520;28;20038;-68
2022/05/01 06:58:56;;;;;;;16.40;6.95;;;17.80;80.90;;;;;;5008566;28;20026;-73
2022/05/01 07:01:22;;;;;;;9.77;4.50;;;17.80;80.90;;;;;;5007369;28;20068;-70
2022/05/01 07:03:49;;;;;;;12.25;4.38;;;17.80;80.90;;;;;;5009657;28;20026;-71
2022/05/01 07:06:15;;;;;;;22.05;4.43;;;17.90;81.10;;;;;;5008919;28;20523;-81
2022/05/01 07:08:42;;;;;;;13.40;3.50;;;17.90;81.10;;;;;;5010892;28;20033;-82
2022/05/01 07:11:09;;;;;;;14.95;3.88;;;17.90;81.20;;;;;;5007249;28;20149;-77
2022/05/01 07:13:36;;;;;;;17.27;3.95;;;17.90;81.00;;;;;;4992758;28;20025;-76
2022/05/01 07:16:03;;;;;;;11.10;3.08;;;18.00;81.60;;;;;;5007675;28;20026;-79
2022/05/01 07:18:29;;;;;;;18.30;3.17;;;18.00;80.70;;;;;;5007514;28;20073;-80
2022/05/01 07:20:56;;;;;;;17.25;3.60;;;18.00;80.40;;;;;;5009103;28;20041;-81
2022/05/01 07:23:24;;;;;;;7.47;2.05;;;18.00;80.10;;;;;;5008585;28;20021;-80
2022/05/01 07:25:50;;;;;;;11.77;4.28;;;18.00;80.40;;;;;;5009340;28;20022;-74
2022/05/01 07:28:17;;;;;;;12.40;4.00;;;18.00;80.20;;;;;;5007680;28;20034;-75
2022/05/01 07:30:44;;;;;;;8.82;3.28;;;18.10;80.10;;;;;;5009817;28;20025;-82
2022/05/01 07:33:10;;;;;;;6.20;2.20;;;18.10;80.10;;;;;;5006684;28;20064;-81
2022/05/01 07:35:37;;;;;;;10.50;3.03;;;18.10;79.90;;;;;;5009357;28;20097;-74
2022/05/01 07:38:04;;;;;;;12.77;2.58;;;18.10;79.70;;;;;;5009593;28;20022;-78
2022/05/01 07:40:30;;;;;;;14.43;3.65;;;18.10;80.00;;;;;;5008306;28;20026;-82
2022/05/01 07:42:57;;;;;;;8.65;2.30;;;18.20;80.00;;;;;;5009773;28;20481;-81
2022/05/01 07:45:24;;;;;;;5.35;1.83;;;18.20;80.00;;;;;;5007511;28;20029;-81
2022/05/01 07:47:53;;;;;;;6.85;1.95;;;18.20;79.90;;;;;;5009045;28;20021;-77
2022/05/01 07:50:20;;;;;;;9.27;3.03;;;18.20;80.10;;;;;;5024507;28;20109;-76
2022/05/01 07:52:47;;;;;;;12.90;2.63;;;18.30;80.20;;;;;;5007394;28;20097;-79
2022/05/01 07:55:13;;;;;;;14.88;3.83;;;18.30;80.10;;;;;;5009200;28;20516;-81
2022/05/01 07:57:40;;;;;;;8.23;2.38;;;18.30;80.20;;;;;;5007960;28;20128;-80
2022/05/01 08:00:11;;;;;;;12.70;3.28;;;18.40;80.30;;;;;;5008555;28;20026;-79
2022/05/01 08:05:25;;;;;;;14.40;3.10;;;18.40;79.50;;;;;;4998755;28;20041;-81
2022/05/01 08:07:52;;;;;;;15.00;2.83;;;18.50;79.40;;;;;;5009213;28;20021;-84
2022/05/01 08:10:20;;;;;;;13.55;4.20;;;18.50;79.40;;;;;;5009167;28;20125;-81
2022/05/01 08:12:47;;;;;;;6.68;1.85;;;18.50;79.40;;;;;;5008206;28;20029;-82
2022/05/01 08:15:18;;;;;;;11.35;2.58;;;18.60;79.40;;;;;;5006882;28;20026;-83
2022/05/01 08:17:46;;;;;;;12.52;2.63;;;18.60;79.40;;;;;;5006860;28;20646;-82
2022/05/01 08:23:09;;;;;;;13.13;2.83;;;18.70;79.70;;;;;;5007384;28;20072;-65
2022/05/01 08:25:37;;;;;;;9.73;2.05;;;18.70;79.10;;;;;;5007398;28;20022;-80
2022/05/01 08:28:06;;;;;;;8.95;2.67;;;18.70;78.50;;;;;;5007597;28;20086;-67
2022/05/01 08:30:32;;;;;;;9.70;2.08;;;18.80;78.20;;;;;;5009297;28;20493;-79
2022/05/01 08:32:59;;;;;;;19.38;3.88;;;18.80;77.80;;;;;;5007435;28;20014;-76
2022/05/01 08:35:25;;;;;;;12.88;3.65;;;18.80;77.40;;;;;;5008226;28;20034;-78
2022/05/01 08:37:52;;;;;;;17.75;2.42;;;18.90;77.30;;;;;;5007813;28;20485;-80
2022/05/01 08:40:18;;;;;;;12.40;2.63;;;18.80;77.00;;;;;;5007971;28;20022;-81
2022/05/01 08:42:47;;;;;;;7.65;2.08;;;18.90;76.80;;;;;;5008201;28;20732;-77
2022/05/01 08:45:16;;;;;;;12.43;2.00;;;18.90;76.60;;;;;;5006031;28;20014;-79
2022/05/01 08:48:15;;;;;;;7.80;1.38;;;19.00;76.50;;;;;;5008591;28;20017;-76
2022/05/01 08:50:42;;;;;;;8.25;2.17;;;19.00;76.40;;;;;;5007184;28;20018;-76
2022/05/01 08:53:09;;;;;;;7.07;1.35;;;19.00;76.30;;;;;;5008172;28;20105;-80
2022/05/01 08:55:38;;;;;;;9.43;2.10;;;19.10;76.20;;;;;;5007841;28;20024;-80
2022/05/01 08:58:05;;;;;;;17.10;2.08;;;19.20;76.40;;;;;;5008104;28;20026;-78
2022/05/01 09:00:32;;;;;;;8.73;2.15;;;19.20;76.30;;;;;;5007892;28;20020;-79
2022/05/01 09:02:58;;;;;;;7.40;2.05;;;19.20;76.20;;;;;;5006904;28;20010;-76
2022/05/01 09:05:25;;;;;;;8.90;2.65;;;19.20;76.10;;;;;;5008066;28;20060;-76
2022/05/01 09:07:51;;;;;;;11.27;2.70;;;19.30;76.10;;;;;;5006702;28;20016;-77
2022/05/01 09:10:20;;;;;;;10.00;1.83;;;19.40;76.10;;;;;;5007981;28;20158;-77
2022/05/01 09:12:53;;;;;;;7.80;1.80;;;19.40;76.60;;;;;;5007870;28;20017;-77
2022/05/01 09:15:40;;;;;;;9.55;2.40;;;19.50;75.70;;;;;;5008267;28;19999;-80
2022/05/01 09:18:11;;;;;;;10.75;1.80;;;19.50;75.40;;;;;;5005875;28;20045;-66
2022/05/01 09:20:58;;;;;;;9.02;2.58;;;19.60;75.00;;;;;;5006376;28;20457;-80
2022/05/01 09:23:42;;;;;;;6.25;2.40;;;19.60;74.40;;;;;;5007474;28;20021;-79
2022/05/01 09:26:10;;;;;;;8.05;1.85;;;19.70;73.80;;;;;;5006409;28;20025;-75
2022/05/01 09:28:44;;;;;;;13.15;2.38;;;19.60;73.40;;;;;;5007315;28;20528;-72
2022/05/01 09:31:11;;;;;;;7.22;1.77;;;19.70;73.10;;;;;;5007630;28;20018;-80
2022/05/01 09:33:37;;;;;;;10.35;2.38;;;19.70;72.90;;;;;;5004141;28;20034;-81
2022/05/01 09:36:04;;;;;;;7.38;1.33;;;19.70;72.70;;;;;;5007322;28;20049;-78
2022/05/01 09:38:30;;;;;;;7.25;2.55;;;19.80;72.60;;;;;;5006934;28;20104;-74
2022/05/01 09:41:02;;;;;;;11.18;3.25;;;19.80;72.50;;;;;;5004966;28;20010;-80
2022/05/01 09:43:42;;;;;;;7.18;1.42;;;19.80;72.30;;;;;;5006981;28;20084;-80
2022/05/01 09:46:20;;;;;;;5.38;1.45;;;19.90;72.10;;;;;;5005099;28;20033;-80
2022/05/01 09:49:07;;;;;;;14.02;3.97;;;20.00;71.90;;;;;;5008279;28;20358;-79
2022/05/01 09:51:47;;;;;;;10.98;2.10;;;20.00;71.70;;;;;;5006856;28;20018;-73
2022/05/01 09:54:22;;;;;;;7.90;2.28;;;20.00;71.50;;;;;;5007086;28;20029;-80
2022/05/01 09:57:04;;;;;;;12.27;2.22;;;20.10;71.40;;;;;;5007549;28;20022;-79
2022/05/01 09:59:46;;;;;;;8.95;2.17;;;20.10;71.40;;;;;;5005767;28;20026;-74
2022/05/01 10:02:12;;;;;;;17.73;2.80;;;20.20;71.20;;;;;;5007192;28;20014;-80
2022/05/01 10:04:39;;;;;;;7.05;2.25;;;20.20;71.10;;;;;;5006253;28;20381;-79
2022/05/01 10:07:08;;;;;;;6.93;2.15;;;20.30;71.10;;;;;;5007448;28;20025;-81
2022/05/01 10:09:35;;;;;;;7.45;3.00;;;20.40;70.60;;;;;;5007370;28;20184;-72
2022/05/01 10:12:07;;;;;;;11.27;3.00;;;20.40;70.10;;;;;;5009968;28;20409;-79
2022/05/01 10:14:34;;;;;;;10.32;2.70;;;20.40;70.20;;;;;;5010580;28;20030;-79
2022/05/01 10:17:02;;;;;;;13.35;3.40;;;20.50;70.20;;;;;;5010345;28;20029;-75
2022/05/01 10:19:30;;;;;;;9.55;2.15;;;20.50;69.80;;;;;;5011425;28;20022;-80
2022/05/01 10:21:59;;;;;;;20.02;2.90;;;20.60;69.60;;;;;;5009967;28;20072;-76
2022/05/01 10:24:27;;;;;;;8.93;2.20;;;20.60;69.20;;;;;;5010030;28;20041;-80
2022/05/01 10:27:14;;;;;;;10.40;2.97;;;20.70;69.10;;;;;;5010881;28;20116;-79
2022/05/01 10:33:15;;;;;;;8.52;1.83;;;20.80;68.90;;;;;;5010757;28;20048;-74
2022/05/01 10:36:00;;;;;;;12.38;2.17;;;20.80;68.10;;;;;;4984939;28;20040;-78
2022/05/01 10:38:47;;;;;;;9.52;2.47;;;20.80;67.70;;;;;;5009782;28;20038;-76
2022/05/01 10:41:16;;;;;;;21.02;4.05;;;20.90;67.70;;;;;;5010484;28;20018;-71
2022/05/01 10:43:55;;;;;;;6.85;2.20;;;20.90;67.30;;;;;;5009101;28;20018;-71
2022/05/01 10:46:22;;;;;;;7.15;2.75;;;21.00;67.10;;;;;;5009664;28;20018;-73
2022/05/01 10:48:48;;;;;;;7.75;2.67;;;21.00;67.00;;;;;;5010498;28;20029;-80
2022/05/01 10:51:30;;;;;;;8.82;2.22;;;21.10;66.80;;;;;;5008965;28;20056;-78
2022/05/01 10:54:33;;;;;;;12.48;2.95;;;21.10;66.30;;;;;;5008539;28;20079;-75
2022/05/01 10:57:08;;;;;;;12.63;2.67;;;21.20;66.30;;;;;;4959048;28;20042;-80
2022/05/01 10:59:38;;;;;;;6.78;2.30;;;21.20;65.90;;;;;;5008552;28;20026;-74
2022/05/01 11:02:07;;;;;;;10.75;1.73;;;21.30;65.50;;;;;;5008365;28;20064;-77
2022/05/01 11:04:40;;;;;;;10.23;2.38;;;21.40;65.00;;;;;;5008960;28;20374;-77
2022/05/01 11:07:10;;;;;;;8.82;2.33;;;21.40;64.90;;;;;;5010268;28;21123;-76
2022/05/01 11:09:39;;;;;;;8.00;2.25;;;21.40;64.80;;;;;;5008881;28;20024;-73
2022/05/01 11:12:07;;;;;;;13.95;3.40;;;21.50;64.80;;;;;;5009861;28;20029;-80
2022/05/01 11:14:41;;;;;;;8.73;2.35;;;21.50;64.70;;;;;;5010116;28;20087;-75
2022/05/01 11:17:14;;;;;;;12.00;3.47;;;21.60;64.70;;;;;;5008724;28;21235;-80
2022/05/01 11:19:45;;;;;;;6.80;2.40;;;21.70;64.80;;;;;;5007397;28;20124;-79
2022/05/01 11:22:15;;;;;;;9.05;2.38;;;21.70;64.50;;;;;;5008536;28;20042;-79
2022/05/01 11:24:45;;;;;;;11.23;2.30;;;21.80;63.90;;;;;;4992010;28;20413;-81
2022/05/01 11:27:16;;;;;;;7.88;2.38;;;21.80;63.50;;;;;;5009716;28;20018;-79
2022/05/01 11:30:42;;;;;;;9.13;2.10;;;21.80;63.40;;;;;;5008926;28;20018;-70
2022/05/01 11:33:11;;;;;;;13.70;2.58;;;21.90;63.20;;;;;;5004528;28;20030;-80
2022/05/01 11:35:54;;;;;;;8.18;2.47;;;22.00;63.20;;;;;;5008747;28;20062;-81
2022/05/01 11:38:30;;;;;;;10.00;1.90;;;22.00;63.10;;;;;;5008370;28;20026;-80
2022/05/01 11:41:00;;;;;;;10.80;4.00;;;22.00;63.00;;;;;;5009572;28;20026;-79
2022/05/01 11:43:28;;;;;;;11.93;3.00;;;22.10;62.70;;;;;;5007780;28;20033;-80
2022/05/01 11:46:05;;;;;;;10.48;2.90;;;22.10;62.30;;;;;;5009548;28;20014;-82
2022/05/01 11:48:31;;;;;;;17.88;2.97;;;22.10;62.30;;;;;;5008434;28;20053;-76
2022/05/01 11:51:01;;;;;;;6.75;2.00;;;22.20;62.30;;;;;;5009665;28;20022;-77
2022/05/01 11:53:32;;;;;;;5.32;1.60;;;22.20;62.00;;;;;;5008985;28;20097;-72
2022/05/01 12:04:28;;;;;;;9.48;2.88;;;22.30;60.80;;;;;;5008062;28;20132;-75
2022/05/01 12:06:58;;;;;;;9.70;2.45;;;22.30;61.00;;;;;;5024640;28;20057;-75
2022/05/01 12:09:26;;;;;;;6.70;2.75;;;22.40;61.10;;;;;;5007751;28;20037;-75
2022/05/01 12:11:53;;;;;;;15.45;3.20;;;22.40;61.20;;;;;;5008743;28;20488;-76
2022/05/01 12:14:20;;;;;;;12.35;2.80;;;22.40;61.20;;;;;;5007799;28;20034;-77
2022/05/01 12:16:48;;;;;;;9.48;2.25;;;22.40;61.20;;;;;;5008543;28;20385;-69
2022/05/01 12:19:16;;;;;;;18.00;3.05;;;22.40;61.30;;;;;;5008669;28;20029;-81
2022/05/01 12:21:43;;;;;;;7.97;2.40;;;22.50;61.40;;;;;;5008478;28;20049;-83
2022/05/01 12:24:11;;;;;;;13.57;3.08;;;22.50;61.40;;;;;;5007360;28;20023;-85
2022/05/01 12:26:49;;;;;;;8.25;2.60;;;22.50;61.10;;;;;;5008115;28;20026;-80
2022/05/01 12:29:16;;;;;;;14.55;3.20;;;22.50;61.00;;;;;;5009435;28;20014;-82
2022/05/01 12:32:02;;;;;;;15.48;2.97;;;22.60;61.60;;;;;;5007574;28;20519;-80
2022/05/01 12:34:29;;;;;;;;;;;22.60;60.80;;;;;;5009397;28;20398;-81
2022/05/01 12:36:57;;;;;;;10.55;2.83;;;22.60;60.90;;;;;;5008410;28;19906;-84
2022/05/01 12:39:25;;;;;;;8.32;2.72;;;22.70;60.50;;;;;;5007239;28;20485;-83
2022/05/01 12:45:17;;;;;;;8.32;2.45;;;22.70;60.50;;;;;;5007600;28;20029;-82
2022/05/01 12:47:51;;;;;;;29.48;3.08;;;22.70;60.50;;;;;;5007338;28;20022;-79
2022/05/01 12:50:21;;;;;;;10.55;2.80;;;22.80;60.40;;;;;;5008290;28;20037;-75
2022/05/01 12:52:53;;;;;;;11.20;2.83;;;22.70;60.00;;;;;;5007317;28;20630;-79
2022/05/01 12:55:27;;;;;;;11.20;3.45;;;22.70;59.90;;;;;;5008291;28;20014;-78
2022/05/01 12:57:58;;;;;;;12.07;2.97;;;22.70;60.00;;;;;;5006335;28;20532;-80
2022/05/01 13:00:38;;;;;;;10.07;2.55;;;22.70;60.10;;;;;;5007655;28;20018;-81
2022/05/01 13:03:36;;;;;;;7.47;2.42;;;22.70;60.30;;;;;;5006150;28;20022;-82
2022/05/01 13:06:13;;;;;;;16.58;3.00;;;22.60;60.40;;;;;;5003232;28;20104;-81
2022/05/01 13:08:44;;;;;;;37.03;4.93;;;22.70;60.50;;;;;;5003977;28;20080;-76
2022/05/01 13:11:23;;;;;;;19.50;3.08;;;22.70;60.80;;;;;;5004496;28;20049;-76
2022/05/01 13:13:58;;;;;;;12.70;3.08;;;22.70;61.00;;;;;;5005051;28;20100;-67
2022/05/01 13:16:30;;;;;;;;;;;22.60;60.80;;;;;;5006752;28;20025;-69
2022/05/01 13:19:01;;;;;;;25.33;3.97;;;22.60;60.60;;;;;;5004657;28;19921;-68
2022/05/01 13:21:30;;;;;;;11.43;3.88;;;22.60;60.40;;;;;;5005567;28;20080;-66
2022/05/01 13:24:01;;;;;;;7.80;3.00;;;22.60;60.50;;;;;;5005557;28;20049;-69
2022/05/01 13:26:27;;;;;;;12.45;3.83;;;22.60;60.60;;;;;;5004299;28;20026;-71
2022/05/01 13:28:54;;;;;;;11.55;2.22;;;22.50;60.50;;;;;;4998729;28;20022;-66
2022/05/01 13:31:21;;;;;;;15.50;3.53;;;22.50;60.50;;;;;;5003828;28;20022;-71